Time;durP1;ratioP1;P1;durP2;ratioP2;P2;SDS_P1;SDS_P2;PMS_P1;PMS_P2;Temp;Humidity;BMP_temperature;BMP_pressure;BME280_temperature;BME280_humidity;BME280_pressure;Samples;Min_cycle;Max_cycle;Signal;HPM_P1;HPM_P2
2021/07/25 00:00:46;;;;;;;;;;;22.80;61.10;;;;;;500552;237;1202;-71
2021/07/25 00:02:50;;;;;;;;;;;22.80;61.20;;;;;;500550;237;1157;-71
2021/07/25 00:04:48;;;;;;;;;;;22.80;61.20;;;;;;500475;238;1440;-71
2021/07/25 00:06:50;;;;;;;;;;;22.80;61.20;;;;;;500474;237;1667;-71
2021/07/25 00:08:51;;;;;;;;;;;22.80;61.20;;;;;;500635;237;993;-71
2021/07/25 00:10:52;;;;;;;;;;;22.80;61.00;;;;;;500585;235;1203;-71
2021/07/25 00:12:54;;;;;;;;;;;22.80;61.10;;;;;;500520;237;1097;-71
2021/07/25 00:14:55;;;;;;;;;;;22.80;61.20;;;;;;500635;237;2180;-71
2021/07/25 00:16:56;;;;;;;;;;;22.90;60.90;;;;;;500552;237;1105;-71
2021/07/25 00:18:58;;;;;;;;;;;23.00;60.70;;;;;;500588;237;1186;-70
2021/07/25 00:20:59;;;;;;;;;;;23.10;60.60;;;;;;500506;237;1194;-70
2021/07/25 00:23:01;;;;;;;;;;;23.10;60.30;;;;;;500559;237;1053;-70
2021/07/25 00:25:08;;;;;;;;;;;23.20;60.10;;;;;;500621;237;990;-70
2021/07/25 00:27:09;;;;;;;;;;;23.30;59.80;;;;;;500619;237;1192;-71
2021/07/25 00:29:10;;;;;;;;;;;23.30;59.70;;;;;;500581;237;1109;-71
2021/07/25 00:31:12;;;;;;;;;;;23.30;59.60;;;;;;500585;237;1219;-71
2021/07/25 00:33:13;;;;;;;;;;;23.30;59.60;;;;;;500628;237;1143;-70
2021/07/25 00:35:14;;;;;;;;;;;23.30;59.60;;;;;;500646;237;2139;-71
2021/07/25 00:37:16;;;;;;;;;;;23.40;59.50;;;;;;500634;237;1227;-71
2021/07/25 00:39:17;;;;;;;;;;;23.40;59.50;;;;;;500667;237;1125;-70
2021/07/25 00:41:19;;;;;;;;;;;23.40;59.40;;;;;;500622;237;1102;-70
2021/07/25 00:43:20;;;;;;;;;;;23.40;59.40;;;;;;500518;237;1224;-71
2021/07/25 00:45:21;;;;;;;;;;;23.40;59.30;;;;;;500651;237;1032;-71
2021/07/25 00:47:22;;;;;;;;;;;23.40;59.50;;;;;;500528;237;1063;-70
2021/07/25 00:49:24;;;;;;;;;;;23.40;59.50;;;;;;500797;237;1217;-70
2021/07/25 00:51:25;;;;;;;;;;;23.40;59.20;;;;;;500937;235;1231;-70
2021/07/25 00:53:27;;;;;;;;;;;23.50;59.20;;;;;;501063;237;1009;-70
2021/07/25 00:55:28;;;;;;;;;;;23.40;59.10;;;;;;501094;237;2124;-72
2021/07/25 00:57:29;;;;;;;;;;;23.40;59.20;;;;;;501026;237;1084;-71
2021/07/25 00:59:31;;;;;;;;;;;23.40;59.30;;;;;;501118;237;1392;-71
2021/07/25 01:01:32;;;;;;;;;;;23.40;59.20;;;;;;501039;237;1146;-71
2021/07/25 01:03:33;;;;;;;;;;;23.30;59.30;;;;;;501034;237;1183;-70
2021/07/25 01:05:35;;;;;;;;;;;23.30;59.40;;;;;;501100;237;1178;-70
2021/07/25 01:07:36;;;;;;;;;;;23.30;59.40;;;;;;501019;237;1159;-70
2021/07/25 01:09:38;;;;;;;;;;;23.30;59.40;;;;;;501116;237;969;-70
2021/07/25 01:11:39;;;;;;;;;;;23.30;59.50;;;;;;501179;237;1172;-70
2021/07/25 01:13:40;;;;;;;;;;;23.20;59.70;;;;;;501123;237;1086;-70
2021/07/25 01:15:42;;;;;;;;;;;23.20;59.60;;;;;;501063;237;2179;-71
2021/07/25 01:17:43;;;;;;;;;;;23.20;59.60;;;;;;501134;237;1079;-71
2021/07/25 01:19:44;;;;;;;;;;;23.20;59.60;;;;;;501157;237;1144;-71
2021/07/25 01:21:46;;;;;;;;;;;23.20;59.60;;;;;;501018;237;1193;-71
2021/07/25 01:23:47;;;;;;;;;;;23.20;59.60;;;;;;501083;237;1067;-71
2021/07/25 01:25:49;;;;;;;;;;;23.20;59.70;;;;;;501100;237;1195;-71
2021/07/25 01:27:50;;;;;;;;;;;23.20;59.70;;;;;;501062;237;976;-71
2021/07/25 01:29:51;;;;;;;;;;;23.10;59.70;;;;;;501202;237;1121;-71
2021/07/25 01:31:53;;;;;;;;;;;23.20;59.80;;;;;;501112;237;1102;-70
2021/07/25 01:33:54;;;;;;;;;;;23.20;59.70;;;;;;501146;237;1066;-71
2021/07/25 01:35:56;;;;;;;;;;;23.20;59.60;;;;;;501130;237;2176;-72
2021/07/25 01:37:57;;;;;;;;;;;23.20;59.70;;;;;;501064;237;1086;-71
2021/07/25 01:39:58;;;;;;;;;;;23.20;59.60;;;;;;501176;237;955;-70
2021/07/25 01:42:00;;;;;;;;;;;23.20;59.60;;;;;;501076;237;1146;-71
2021/07/25 01:44:01;;;;;;;;;;;23.20;59.70;;;;;;501063;237;1142;-71
2021/07/25 01:46:03;;;;;;;;;;;23.20;59.60;;;;;;501121;237;1226;-71
2021/07/25 01:48:04;;;;;;;;;;;23.20;59.60;;;;;;501063;237;1060;-71
2021/07/25 01:50:05;;;;;;;;;;;23.10;59.80;;;;;;501194;237;1138;-71
2021/07/25 01:52:07;;;;;;;;;;;23.20;59.70;;;;;;500993;237;1213;-71
2021/07/25 01:54:08;;;;;;;;;;;23.20;59.60;;;;;;501172;237;928;-70
2021/07/25 01:56:09;;;;;;;;;;;23.10;59.80;;;;;;501125;237;2172;-70
2021/07/25 01:58:11;;;;;;;;;;;23.10;59.80;;;;;;501081;237;1031;-71
2021/07/25 02:00:12;;;;;;;;;;;23.10;60.00;;;;;;501132;237;1061;-71
2021/07/25 02:02:13;;;;;;;;;;;23.10;60.00;;;;;;501099;237;1214;-71
2021/07/25 02:04:15;;;;;;;;;;;23.10;59.80;;;;;;501090;237;1179;-71
2021/07/25 02:06:17;;;;;;;;;;;23.20;59.80;;;;;;501175;237;1232;-71
2021/07/25 02:08:18;;;;;;;;;;;23.30;59.40;;;;;;501151;237;1098;-71
2021/07/25 02:10:19;;;;;;;;;;;23.20;59.60;;;;;;501185;237;1002;-71
2021/07/25 02:12:20;;;;;;;;;;;23.20;59.60;;;;;;501131;237;1197;-70
2021/07/25 02:14:22;;;;;;;;;;;23.30;59.60;;;;;;501152;237;1040;-71
2021/07/25 02:16:23;;;;;;;;;;;23.30;59.50;;;;;;501091;237;2120;-71
2021/07/25 02:18:24;;;;;;;;;;;23.20;59.60;;;;;;501152;237;1381;-70
2021/07/25 02:20:26;;;;;;;;;;;23.20;59.70;;;;;;501198;237;1191;-71
2021/07/25 02:22:27;;;;;;;;;;;23.30;59.60;;;;;;501060;237;1458;-71
2021/07/25 02:24:29;;;;;;;;;;;23.20;59.60;;;;;;501107;237;923;-71
2021/07/25 02:26:30;;;;;;;;;;;23.20;59.60;;;;;;501034;237;1194;-71
2021/07/25 02:28:31;;;;;;;;;;;23.20;59.60;;;;;;501091;237;1178;-71
2021/07/25 02:30:33;;;;;;;;;;;23.10;59.90;;;;;;501161;237;1199;-71
2021/07/25 02:32:34;;;;;;;;;;;23.10;59.80;;;;;;501061;237;1350;-71
2021/07/25 02:34:36;;;;;;;;;;;23.20;59.90;;;;;;501169;237;1196;-71
2021/07/25 02:36:37;;;;;;;;;;;23.10;59.70;;;;;;501026;235;2175;-71
2021/07/25 02:38:38;;;;;;;;;;;23.20;59.70;;;;;;501147;237;1300;-71
2021/07/25 02:40:40;;;;;;;;;;;23.20;59.80;;;;;;501107;237;1016;-71
2021/07/25 02:42:42;;;;;;;;;;;23.20;59.60;;;;;;501008;237;1190;-70
2021/07/25 02:44:42;;;;;;;;;;;23.20;59.60;;;;;;501003;238;1489;-71
2021/07/25 02:46:44;;;;;;;;;;;23.20;59.80;;;;;;501119;237;1212;-71
2021/07/25 02:48:45;;;;;;;;;;;23.20;59.80;;;;;;501098;237;1049;-72
2021/07/25 02:50:46;;;;;;;;;;;23.20;59.70;;;;;;501088;237;1215;-71
2021/07/25 02:52:48;;;;;;;;;;;23.30;59.70;;;;;;501119;237;1095;-72
2021/07/25 02:54:49;;;;;;;;;;;23.20;59.70;;;;;;501075;237;1103;-71
2021/07/25 02:56:51;;;;;;;;;;;23.20;59.80;;;;;;501090;237;2176;-71
2021/07/25 02:58:52;;;;;;;;;;;23.10;59.90;;;;;;501142;237;1076;-71
2021/07/25 03:00:53;;;;;;;;;;;23.20;59.90;;;;;;501112;237;1156;-71
2021/07/25 03:02:56;;;;;;;;;;;23.10;59.90;;;;;;501128;237;1153;-71
2021/07/25 03:04:56;;;;;;;;;;;23.20;59.90;;;;;;501013;238;1420;-70
2021/07/25 03:06:57;;;;;;;;;;;23.20;60.00;;;;;;500957;237;1210;-71
2021/07/25 03:08:59;;;;;;;;;;;23.20;59.90;;;;;;501127;237;1307;-71
2021/07/25 03:11:01;;;;;;;;;;;23.20;59.80;;;;;;501060;237;1477;-71
2021/07/25 03:13:02;;;;;;;;;;;23.10;60.00;;;;;;500970;237;1392;-71
2021/07/25 03:15:03;;;;;;;;;;;23.20;60.00;;;;;;501110;237;986;-71
2021/07/25 03:17:04;;;;;;;;;;;23.20;60.00;;;;;;500919;237;2101;-71
2021/07/25 03:19:06;;;;;;;;;;;23.20;60.00;;;;;;501130;237;1153;-71
2021/07/25 03:21:07;;;;;;;;;;;23.20;60.00;;;;;;501012;237;1317;-71
2021/07/25 03:23:09;;;;;;;;;;;23.20;60.00;;;;;;501016;237;1102;-71
2021/07/25 03:25:10;;;;;;;;;;;23.10;60.00;;;;;;501106;237;963;-70
2021/07/25 03:27:11;;;;;;;;;;;23.10;60.10;;;;;;500972;237;1104;-71
2021/07/25 03:29:13;;;;;;;;;;;23.20;60.00;;;;;;501062;237;1043;-71
2021/07/25 03:31:14;;;;;;;;;;;23.10;60.00;;;;;;501077;237;1216;-71
2021/07/25 03:33:15;;;;;;;;;;;23.10;60.00;;;;;;501087;237;1078;-71
2021/07/25 03:35:17;;;;;;;;;;;23.00;60.20;;;;;;501110;237;1239;-71
2021/07/25 03:37:18;;;;;;;;;;;23.10;60.20;;;;;;501043;237;2180;-71
2021/07/25 03:39:21;;;;;;;;;;;23.20;60.00;;;;;;501098;237;944;-71
2021/07/25 03:41:21;;;;;;;;;;;23.20;60.00;;;;;;500921;238;1435;-70
2021/07/25 03:43:22;;;;;;;;;;;23.20;59.90;;;;;;501195;237;1420;-71
2021/07/25 03:45:24;;;;;;;;;;;23.20;59.80;;;;;;501163;237;1011;-71
2021/07/25 03:47:25;;;;;;;;;;;23.20;59.80;;;;;;501180;237;1167;-71
2021/07/25 03:49:26;;;;;;;;;;;23.20;59.80;;;;;;501200;237;944;-71
2021/07/25 03:51:28;;;;;;;;;;;23.20;59.70;;;;;;501195;237;1293;-71
2021/07/25 03:53:29;;;;;;;;;;;23.20;59.80;;;;;;501207;237;1144;-71
2021/07/25 03:55:31;;;;;;;;;;;23.30;59.70;;;;;;501049;238;1323;-71
2021/07/25 03:57:32;;;;;;;;;;;23.30;59.60;;;;;;501156;237;2168;-71
2021/07/25 03:59:33;;;;;;;;;;;23.30;59.60;;;;;;501182;237;954;-71
2021/07/25 04:01:35;;;;;;;;;;;23.30;59.70;;;;;;501144;237;1200;-71
2021/07/25 04:03:37;;;;;;;;;;;23.30;59.60;;;;;;501129;237;1193;-71
2021/07/25 04:05:38;;;;;;;;;;;23.30;59.60;;;;;;501103;237;1244;-71
2021/07/25 04:07:39;;;;;;;;;;;23.30;59.70;;;;;;501051;237;1192;-71
2021/07/25 04:09:40;;;;;;;;;;;23.20;59.90;;;;;;501116;237;931;-71
2021/07/25 04:11:42;;;;;;;;;;;23.30;59.70;;;;;;500971;237;1224;-71
2021/07/25 04:13:43;;;;;;;;;;;23.20;60.00;;;;;;500994;237;1061;-71
2021/07/25 04:15:44;;;;;;;;;;;23.20;60.00;;;;;;501003;237;1207;-70
2021/07/25 04:17:46;;;;;;;;;;;23.20;60.10;;;;;;500891;237;2108;-71
2021/07/25 04:19:47;;;;;;;;;;;23.20;59.90;;;;;;501097;237;956;-70
2021/07/25 04:21:49;;;;;;;;;;;23.20;60.00;;;;;;500897;237;1285;-70
2021/07/25 04:23:50;;;;;;;;;;;23.30;59.80;;;;;;501136;237;1004;-71
2021/07/25 04:25:51;;;;;;;;;;;23.20;60.00;;;;;;501078;235;1127;-71
2021/07/25 04:27:53;;;;;;;;;;;23.20;60.00;;;;;;501065;237;1447;-71
2021/07/25 04:29:54;;;;;;;;;;;23.20;59.80;;;;;;501106;237;1347;-71
2021/07/25 04:31:55;;;;;;;;;;;23.20;59.90;;;;;;501007;237;1148;-71
2021/07/25 04:33:58;;;;;;;;;;;23.20;60.00;;;;;;501049;237;1176;-71
2021/07/25 04:35:58;;;;;;;;;;;23.20;60.10;;;;;;501022;237;1513;-71
2021/07/25 04:38:00;;;;;;;;;;;23.20;60.10;;;;;;501075;237;2179;-70
2021/07/25 04:40:01;;;;;;;;;;;23.10;60.10;;;;;;501075;237;954;-71
2021/07/25 04:42:02;;;;;;;;;;;23.10;60.20;;;;;;501030;235;1245;-71
2021/07/25 04:44:04;;;;;;;;;;;23.20;60.10;;;;;;501035;237;1057;-71
2021/07/25 04:46:05;;;;;;;;;;;23.20;60.00;;;;;;501052;237;1163;-71
2021/07/25 04:48:07;;;;;;;;;;;23.20;60.10;;;;;;501147;237;1241;-71
2021/07/25 04:50:09;;;;;;;;;;;23.20;60.10;;;;;;501127;237;1219;-71
2021/07/25 04:52:10;;;;;;;;;;;23.20;60.00;;;;;;501022;237;1216;-71
2021/07/25 04:54:11;;;;;;;;;;;23.10;60.10;;;;;;501074;237;965;-70
2021/07/25 04:56:13;;;;;;;;;;;23.20;60.10;;;;;;501099;237;956;-71
2021/07/25 04:58:14;;;;;;;;;;;23.10;60.00;;;;;;501038;237;2175;-71
2021/07/25 05:00:15;;;;;;;;;;;23.10;60.10;;;;;;501081;237;953;-71
2021/07/25 05:02:19;;;;;;;;;;;23.20;60.00;;;;;;501099;237;1266;-70
2021/07/25 05:04:18;;;;;;;;;;;23.20;59.90;;;;;;500923;238;1223;-70
2021/07/25 05:06:21;;;;;;;;;;;23.20;59.90;;;;;;501116;237;1272;-70
2021/07/25 05:08:23;;;;;;;;;;;23.20;60.10;;;;;;500947;238;1278;-71
2021/07/25 05:10:25;;;;;;;;;;;23.20;60.00;;;;;;501092;237;982;-71
2021/07/25 05:12:26;;;;;;;;;;;23.20;60.20;;;;;;501085;237;1225;-71
2021/07/25 05:14:28;;;;;;;;;;;23.20;60.10;;;;;;501152;237;989;-71
2021/07/25 05:16:29;;;;;;;;;;;23.10;60.10;;;;;;501038;237;2140;-71
2021/07/25 05:18:30;;;;;;;;;;;23.20;60.10;;;;;;501202;237;943;-71
2021/07/25 05:20:32;;;;;;;;;;;23.20;60.10;;;;;;501081;237;1130;-71
2021/07/25 05:22:33;;;;;;;;;;;23.20;60.00;;;;;;501096;237;1268;-71
2021/07/25 05:24:34;;;;;;;;;;;23.20;60.00;;;;;;501043;237;930;-71
2021/07/25 05:26:36;;;;;;;;;;;23.10;60.10;;;;;;501092;237;1137;-71
2021/07/25 05:28:37;;;;;;;;;;;23.10;60.20;;;;;;501097;237;1206;-71
2021/07/25 05:30:39;;;;;;;;;;;23.20;60.30;;;;;;501150;237;1152;-71
2021/07/25 05:32:40;;;;;;;;;;;23.10;60.10;;;;;;501061;237;1439;-72
2021/07/25 05:34:41;;;;;;;;;;;23.10;60.40;;;;;;501089;237;1412;-71
2021/07/25 05:36:42;;;;;;;;;;;23.10;60.40;;;;;;501024;237;2151;-71
2021/07/25 05:38:44;;;;;;;;;;;23.10;60.40;;;;;;501214;237;840;-71
2021/07/25 05:40:45;;;;;;;;;;;23.10;60.20;;;;;;501099;237;1004;-71
2021/07/25 05:42:47;;;;;;;;;;;23.20;60.20;;;;;;500974;237;1044;-71
2021/07/25 05:44:48;;;;;;;;;;;23.20;60.20;;;;;;501127;237;1045;-71
2021/07/25 05:46:49;;;;;;;;;;;23.10;60.10;;;;;;501004;237;1123;-71
2021/07/25 05:48:51;;;;;;;;;;;23.20;60.20;;;;;;501067;237;931;-71
2021/07/25 05:50:52;;;;;;;;;;;23.20;60.20;;;;;;501112;235;1238;-70
2021/07/25 05:52:53;;;;;;;;;;;23.20;60.20;;;;;;500943;237;1235;-71
2021/07/25 05:54:55;;;;;;;;;;;23.10;60.30;;;;;;501074;237;963;-71
2021/07/25 05:56:56;;;;;;;;;;;23.10;60.30;;;;;;501051;237;2192;-71
2021/07/25 05:58:58;;;;;;;;;;;23.20;60.20;;;;;;501019;237;951;-71
2021/07/25 06:00:59;;;;;;;;;;;23.20;60.20;;;;;;500996;237;1164;-71
2021/07/25 06:03:00;;;;;;;;;;;23.20;60.00;;;;;;501048;237;1074;-71
2021/07/25 06:05:02;;;;;;;;;;;23.20;60.10;;;;;;501074;237;960;-71
2021/07/25 06:07:05;;;;;;;;;;;23.20;60.00;;;;;;501047;237;1181;-71
2021/07/25 06:09:07;;;;;;;;;;;23.30;60.00;;;;;;501045;237;932;-71
2021/07/25 06:11:08;;;;;;;;;;;23.20;60.00;;;;;;500992;236;1251;-71
2021/07/25 06:13:10;;;;;;;;;;;23.20;60.00;;;;;;501170;237;1183;-71
2021/07/25 06:15:11;;;;;;;;;;;23.20;60.10;;;;;;501106;237;996;-71
2021/07/25 06:17:12;;;;;;;;;;;23.20;60.10;;;;;;501031;237;2168;-71
2021/07/25 06:19:14;;;;;;;;;;;23.30;60.00;;;;;;501136;237;1137;-71
2021/07/25 06:21:15;;;;;;;;;;;23.30;59.80;;;;;;501055;235;1250;-71
2021/07/25 06:23:17;;;;;;;;;;;23.30;60.00;;;;;;501069;237;1174;-71
2021/07/25 06:25:20;;;;;;;;;;;23.30;59.80;;;;;;501089;237;1223;-71
2021/07/25 06:27:20;;;;;;;;;;;23.30;59.80;;;;;;500950;237;1446;-71
2021/07/25 06:29:21;;;;;;;;;;;23.30;59.80;;;;;;501133;237;1050;-71
2021/07/25 06:31:22;;;;;;;;;;;23.30;59.90;;;;;;501157;237;947;-71
2021/07/25 06:33:24;;;;;;;;;;;23.30;59.90;;;;;;501093;237;1162;-71
2021/07/25 06:35:25;;;;;;;;;;;23.30;59.90;;;;;;501212;237;989;-71
2021/07/25 06:37:26;;;;;;;;;;;23.30;59.90;;;;;;501074;237;2176;-71
2021/07/25 06:39:28;;;;;;;;;;;23.30;60.00;;;;;;501121;237;980;-71
2021/07/25 06:41:29;;;;;;;;;;;23.30;60.00;;;;;;501114;237;921;-71
2021/07/25 06:43:31;;;;;;;;;;;23.30;59.90;;;;;;501122;237;1069;-71
2021/07/25 06:45:32;;;;;;;;;;;23.30;60.00;;;;;;501093;237;1027;-71
2021/07/25 06:47:33;;;;;;;;;;;23.30;60.00;;;;;;501043;237;968;-71
2021/07/25 06:49:35;;;;;;;;;;;23.30;60.00;;;;;;501037;237;938;-70
2021/07/25 06:51:36;;;;;;;;;;;23.40;59.90;;;;;;501116;237;936;-71
2021/07/25 06:53:40;;;;;;;;;;;23.40;59.80;;;;;;501105;237;1282;-71
2021/07/25 06:55:39;;;;;;;;;;;23.40;59.90;;;;;;500950;238;1478;-72
2021/07/25 06:57:40;;;;;;;;;;;23.40;59.90;;;;;;501062;237;2176;-71
2021/07/25 06:59:42;;;;;;;;;;;23.40;59.90;;;;;;501130;237;1005;-71
2021/07/25 07:01:43;;;;;;;;;;;23.30;59.90;;;;;;501029;237;1015;-71
2021/07/25 07:03:44;;;;;;;;;;;23.40;60.00;;;;;;501054;237;934;-71
2021/07/25 07:05:46;;;;;;;;;;;23.40;59.90;;;;;;501067;237;986;-71
2021/07/25 07:07:47;;;;;;;;;;;23.40;59.90;;;;;;501071;237;1145;-71
2021/07/25 07:09:48;;;;;;;;;;;23.40;60.00;;;;;;501098;237;997;-71
2021/07/25 07:11:50;;;;;;;;;;;23.40;59.80;;;;;;501080;237;1120;-71
2021/07/25 07:13:54;;;;;;;;;;;23.40;59.90;;;;;;501157;237;932;-71
2021/07/25 07:15:53;;;;;;;;;;;23.40;60.00;;;;;;500885;238;1277;-71
2021/07/25 07:17:54;;;;;;;;;;;23.40;60.10;;;;;;500931;237;2192;-71
2021/07/25 07:19:56;;;;;;;;;;;23.30;60.10;;;;;;500988;237;1357;-70
2021/07/25 07:21:57;;;;;;;;;;;23.30;60.50;;;;;;500962;237;1213;-71
2021/07/25 07:23:58;;;;;;;;;;;23.20;60.60;;;;;;500999;237;1197;-71
2021/07/25 07:26:00;;;;;;;;;;;23.30;60.70;;;;;;501075;237;935;-71
2021/07/25 07:28:01;;;;;;;;;;;23.30;60.60;;;;;;500994;237;1136;-71
2021/07/25 07:30:02;;;;;;;;;;;23.30;60.70;;;;;;501033;237;1187;-71
2021/07/25 07:32:04;;;;;;;;;;;23.20;60.70;;;;;;500998;237;1136;-71
2021/07/25 07:34:05;;;;;;;;;;;23.30;60.80;;;;;;500882;237;1358;-71
2021/07/25 07:36:06;;;;;;;;;;;23.30;60.60;;;;;;500966;237;1016;-72
2021/07/25 07:38:08;;;;;;;;;;;23.20;60.70;;;;;;501024;237;2163;-71
2021/07/25 07:40:09;;;;;;;;;;;23.30;60.70;;;;;;501089;237;1248;-70
2021/07/25 07:42:11;;;;;;;;;;;23.30;60.60;;;;;;500975;237;1184;-71
2021/07/25 07:44:12;;;;;;;;;;;23.30;60.70;;;;;;501078;237;1254;-70
2021/07/25 07:46:14;;;;;;;;;;;23.30;60.60;;;;;;501040;237;1023;-71
2021/07/25 07:48:15;;;;;;;;;;;23.20;60.70;;;;;;500949;238;1453;-70
2021/07/25 07:50:16;;;;;;;;;;;23.20;60.70;;;;;;500898;237;1459;-71
2021/07/25 07:52:17;;;;;;;;;;;23.30;60.60;;;;;;500954;237;1197;-71
2021/07/25 07:54:19;;;;;;;;;;;23.20;60.70;;;;;;500928;237;1199;-71
2021/07/25 07:56:21;;;;;;;;;;;23.30;60.70;;;;;;500917;237;1135;-71
2021/07/25 07:58:22;;;;;;;;;;;23.20;60.80;;;;;;501044;237;2168;-70
2021/07/25 08:00:23;;;;;;;;;;;23.20;60.70;;;;;;501021;237;995;-71
2021/07/25 08:02:24;;;;;;;;;;;23.20;60.70;;;;;;500956;237;1081;-70
2021/07/25 08:04:26;;;;;;;;;;;23.20;60.80;;;;;;501101;237;1022;-70
2021/07/25 08:06:27;;;;;;;;;;;23.20;60.80;;;;;;501003;237;1178;-70
2021/07/25 08:08:28;;;;;;;;;;;23.20;60.90;;;;;;500946;237;1415;-71
2021/07/25 08:10:30;;;;;;;;;;;23.20;60.90;;;;;;501031;237;932;-71
2021/07/25 08:12:31;;;;;;;;;;;23.20;61.00;;;;;;501025;237;1106;-71
2021/07/25 08:14:32;;;;;;;;;;;23.10;61.00;;;;;;501140;237;1099;-71
2021/07/25 08:16:34;;;;;;;;;;;23.10;61.10;;;;;;501110;237;1817;-71
2021/07/25 08:18:35;;;;;;;;;;;23.10;61.20;;;;;;501095;237;2168;-71
2021/07/25 08:20:37;;;;;;;;;;;23.10;61.20;;;;;;501121;237;1123;-71
2021/07/25 08:22:38;;;;;;;;;;;23.10;61.10;;;;;;501089;237;1134;-71
2021/07/25 08:24:39;;;;;;;;;;;23.20;61.10;;;;;;501121;237;1174;-71
2021/07/25 08:26:41;;;;;;;;;;;23.20;61.10;;;;;;501110;237;1458;-71
2021/07/25 08:28:42;;;;;;;;;;;23.10;61.20;;;;;;501152;237;1149;-71
2021/07/25 08:30:43;;;;;;;;;;;23.10;61.10;;;;;;501120;237;1221;-71
2021/07/25 08:32:45;;;;;;;;;;;23.20;60.90;;;;;;501151;237;1159;-71
2021/07/25 08:34:46;;;;;;;;;;;23.20;60.90;;;;;;501126;237;979;-71
2021/07/25 08:36:48;;;;;;;;;;;23.20;60.90;;;;;;501087;237;1214;-71
2021/07/25 08:38:49;;;;;;;;;;;23.20;60.70;;;;;;501028;237;2195;-71
2021/07/25 08:40:50;;;;;;;;;;;23.20;60.90;;;;;;501052;237;1178;-71
2021/07/25 08:42:52;;;;;;;;;;;23.10;60.90;;;;;;501106;237;958;-71
2021/07/25 08:44:53;;;;;;;;;;;23.10;61.10;;;;;;501017;237;1106;-70
2021/07/25 08:46:55;;;;;;;;;;;23.10;61.10;;;;;;501060;237;1281;-71
2021/07/25 08:48:56;;;;;;;;;;;23.10;61.00;;;;;;501008;237;1062;-71
2021/07/25 08:50:58;;;;;;;;;;;23.10;61.10;;;;;;500857;238;1462;-71
2021/07/25 08:52:59;;;;;;;;;;;23.10;61.10;;;;;;500944;237;1320;-71
2021/07/25 08:55:00;;;;;;;;;;;23.10;61.00;;;;;;501022;237;1195;-71
2021/07/25 08:57:02;;;;;;;;;;;23.10;60.90;;;;;;500953;237;1348;-71
2021/07/25 08:59:03;;;;;;;;;;;23.10;61.00;;;;;;501023;237;2117;-71
2021/07/25 09:01:04;;;;;;;;;;;23.10;61.00;;;;;;500956;237;1258;-71
2021/07/25 09:03:06;;;;;;;;;;;23.30;60.60;;;;;;501073;237;1095;-71
2021/07/25 09:05:08;;;;;;;;;;;23.20;60.60;;;;;;501010;237;1034;-71
2021/07/25 09:07:09;;;;;;;;;;;23.20;60.70;;;;;;500874;238;1401;-71
2021/07/25 09:09:10;;;;;;;;;;;23.10;61.00;;;;;;501023;237;1191;-70
2021/07/25 09:11:12;;;;;;;;;;;23.10;61.00;;;;;;500974;237;1230;-70
2021/07/25 09:13:13;;;;;;;;;;;23.20;60.90;;;;;;501061;237;1125;-70
2021/07/25 09:15:15;;;;;;;;;;;23.10;60.90;;;;;;501103;237;988;-70
2021/07/25 09:17:16;;;;;;;;;;;23.00;61.50;;;;;;500871;237;1407;-70
2021/07/25 09:19:18;;;;;;;;;;;22.90;62.00;;;;;;501152;237;2172;-71
2021/07/25 09:21:19;;;;;;;;;;;22.60;62.50;;;;;;501171;235;1199;-71
2021/07/25 09:23:20;;;;;;;;;;;22.60;62.90;;;;;;501203;237;1106;-71
2021/07/25 09:25:23;;;;;;;;;;;22.60;63.00;;;;;;501158;237;1137;-71
2021/07/25 09:27:24;;;;;;;;;;;22.60;63.10;;;;;;501157;237;1176;-71
2021/07/25 09:29:25;;;;;;;;;;;22.50;63.20;;;;;;501219;237;983;-71
2021/07/25 09:31:27;;;;;;;;;;;22.60;63.20;;;;;;501262;237;885;-71
2021/07/25 09:33:28;;;;;;;;;;;22.60;63.20;;;;;;501239;237;1347;-71
2021/07/25 09:35:30;;;;;;;;;;;22.60;63.20;;;;;;501212;237;1189;-71
2021/07/25 09:37:31;;;;;;;;;;;22.50;63.30;;;;;;501221;237;1228;-71
2021/07/25 09:39:32;;;;;;;;;;;22.50;63.40;;;;;;501277;237;2173;-71
2021/07/25 09:41:34;;;;;;;;;;;22.50;63.40;;;;;;501183;237;1020;-71
2021/07/25 09:43:35;;;;;;;;;;;22.60;63.40;;;;;;501193;237;1194;-71
2021/07/25 09:45:36;;;;;;;;;;;22.50;63.40;;;;;;501091;237;1110;-71
2021/07/25 09:47:39;;;;;;;;;;;22.50;63.40;;;;;;501070;237;1195;-71
2021/07/25 09:49:39;;;;;;;;;;;22.50;63.40;;;;;;501053;238;1477;-71
2021/07/25 09:51:41;;;;;;;;;;;22.50;63.40;;;;;;501108;237;1196;-71
2021/07/25 09:53:43;;;;;;;;;;;22.50;63.50;;;;;;501089;237;2583;-71
2021/07/25 09:55:44;;;;;;;;;;;22.50;63.50;;;;;;501064;238;1499;-71
2021/07/25 09:57:45;;;;;;;;;;;22.60;63.50;;;;;;501175;237;1210;-71
2021/07/25 09:59:46;;;;;;;;;;;22.60;63.50;;;;;;501218;237;2180;-70
2021/07/25 10:01:48;;;;;;;;;;;22.60;63.40;;;;;;501271;237;1062;-71
2021/07/25 10:03:49;;;;;;;;;;;22.50;63.40;;;;;;501219;237;1106;-71
2021/07/25 10:05:50;;;;;;;;;;;22.50;63.60;;;;;;501290;237;1157;-71
2021/07/25 10:07:52;;;;;;;;;;;22.50;63.50;;;;;;501218;237;1125;-71
2021/07/25 10:09:53;;;;;;;;;;;22.60;63.50;;;;;;501204;237;1376;-71
2021/07/25 10:11:55;;;;;;;;;;;22.50;63.40;;;;;;501256;237;1126;-71
2021/07/25 10:13:56;;;;;;;;;;;22.50;63.50;;;;;;501281;237;1503;-71
2021/07/25 10:15:58;;;;;;;;;;;22.50;63.40;;;;;;501231;237;1127;-71
2021/07/25 10:17:59;;;;;;;;;;;22.50;63.50;;;;;;501231;237;1393;-71
2021/07/25 10:20:00;;;;;;;;;;;22.50;63.40;;;;;;501169;235;2167;-71
2021/07/25 10:22:02;;;;;;;;;;;22.50;63.50;;;;;;501257;237;1205;-71
2021/07/25 10:24:03;;;;;;;;;;;22.50;63.50;;;;;;501222;237;1121;-71
2021/07/25 10:26:05;;;;;;;;;;;22.50;63.70;;;;;;501204;237;1207;-70
2021/07/25 10:28:06;;;;;;;;;;;22.50;63.50;;;;;;501245;237;1047;-71
2021/07/25 10:30:07;;;;;;;;;;;22.50;63.70;;;;;;501217;237;1236;-71
2021/07/25 10:32:09;;;;;;;;;;;22.50;63.70;;;;;;501234;237;1379;-70
2021/07/25 10:34:12;;;;;;;;;;;22.50;63.70;;;;;;501294;237;1241;-71
2021/07/25 10:36:13;;;;;;;;;;;22.60;63.60;;;;;;501254;237;926;-71
2021/07/25 10:38:15;;;;;;;;;;;22.50;63.60;;;;;;501287;237;1094;-71
2021/07/25 10:40:16;;;;;;;;;;;22.50;63.70;;;;;;501243;237;1302;-71
2021/07/25 10:42:18;;;;;;;;;;;22.50;63.60;;;;;;501264;237;963;-71
2021/07/25 10:44:19;;;;;;;;;;;22.50;63.60;;;;;;501263;237;1082;-71
2021/07/25 10:46:21;;;;;;;;;;;22.50;63.60;;;;;;501073;237;1220;-71
2021/07/25 10:48:22;;;;;;;;;;;22.50;63.70;;;;;;501160;237;1875;-71
2021/07/25 10:50:23;;;;;;;;;;;22.50;63.70;;;;;;501111;237;976;-71
2021/07/25 10:52:25;;;;;;;;;;;22.50;63.70;;;;;;501008;237;1269;-70
2021/07/25 10:54:26;;;;;;;;;;;22.50;63.70;;;;;;501015;237;1036;-71
2021/07/25 10:56:27;;;;;;;;;;;22.60;63.70;;;;;;501036;237;1282;-71
2021/07/25 10:58:29;;;;;;;;;;;22.50;63.60;;;;;;501175;237;2180;-71
2021/07/25 11:00:30;;;;;;;;;;;22.50;63.80;;;;;;501165;237;1259;-71
2021/07/25 11:02:33;;;;;;;;;;;22.60;63.70;;;;;;501135;237;1340;-71
2021/07/25 11:04:33;;;;;;;;;;;22.50;63.80;;;;;;501238;238;1457;-70
2021/07/25 11:06:36;;;;;;;;;;;22.50;63.90;;;;;;501293;237;2194;-71
2021/07/25 11:08:36;;;;;;;;;;;22.40;64.20;;;;;;501126;238;1437;-71
2021/07/25 11:10:37;;;;;;;;;;;22.40;64.50;;;;;;501233;237;1213;-71
2021/07/25 11:12:38;;;;;;;;;;;22.40;64.70;;;;;;501162;237;1185;-70
2021/07/25 11:14:40;;;;;;;;;;;22.30;64.80;;;;;;501189;237;939;-71
2021/07/25 11:16:42;;;;;;;;;;;22.30;65.00;;;;;;501131;237;1185;-71
2021/07/25 11:18:44;;;;;;;;;;;22.30;65.10;;;;;;501200;237;2180;-71
2021/07/25 11:20:51;;;;;;;;;;;22.30;65.10;;;;;;501241;237;927;-71
2021/07/25 11:22:48;;;;;;;;;;;22.30;65.20;;;;;;500874;238;1400;-71
2021/07/25 11:24:50;;;;;;;;;;;22.20;65.10;;;;;;501205;237;949;-70
2021/07/25 11:26:51;;;;;;;;;;;22.30;65.10;;;;;;501203;237;1291;-70
2021/07/25 11:28:53;;;;;;;;;;;22.20;65.10;;;;;;501221;237;1099;-71
2021/07/25 11:30:55;;;;;;;;;;;22.30;65.10;;;;;;501221;237;1453;-71
2021/07/25 11:32:56;;;;;;;;;;;22.20;65.10;;;;;;501105;238;1453;-71
2021/07/25 11:34:57;;;;;;;;;;;22.20;65.10;;;;;;501156;237;944;-71
2021/07/25 11:36:59;;;;;;;;;;;22.20;65.20;;;;;;501123;237;1412;-71
2021/07/25 11:39:00;;;;;;;;;;;22.20;65.20;;;;;;501102;237;2176;-71
2021/07/25 11:41:02;;;;;;;;;;;22.20;65.10;;;;;;501121;237;1298;-71
2021/07/25 11:43:03;;;;;;;;;;;22.30;65.10;;;;;;501103;237;1211;-71
2021/07/25 11:45:05;;;;;;;;;;;22.20;65.10;;;;;;501217;237;1443;-71
2021/07/25 11:47:07;;;;;;;;;;;22.20;65.10;;;;;;501127;237;1233;-71
2021/07/25 11:49:07;;;;;;;;;;;22.20;65.10;;;;;;501063;237;1314;-71
2021/07/25 11:51:09;;;;;;;;;;;22.20;65.20;;;;;;500979;237;1453;-71
2021/07/25 11:53:10;;;;;;;;;;;22.20;65.20;;;;;;500982;237;1085;-71
2021/07/25 11:55:12;;;;;;;;;;;22.20;65.20;;;;;;500984;237;931;-71
2021/07/25 11:57:13;;;;;;;;;;;22.20;65.20;;;;;;500955;237;1228;-70